Time;durP1;ratioP1;P1;durP2;ratioP2;P2;SDS_P1;SDS_P2;PMS_P1;PMS_P2;Temp;Humidity;BMP_temperature;BMP_pressure;BME280_temperature;BME280_humidity;BME280_pressure;Samples;Min_cycle;Max_cycle;Signal;HPM_P1;HPM_P2
2021/04/17 00:01:41;;;;;;;59.50;32.58;;;204.90;1945.60;;;;;;5094520;28;20435;-77
2021/04/17 00:04:07;;;;;;;58.95;32.83;;;204.90;1920.00;;;;;;5076880;28;20032;-77
2021/04/17 00:06:34;;;;;;;51.83;29.98;;;204.90;1894.40;;;;;;5084878;28;20497;-77
2021/04/17 00:09:01;;;;;;;55.35;31.05;;;204.90;1894.40;;;;;;5082518;28;20035;-77
2021/04/17 00:11:28;;;;;;;51.92;29.85;;;204.90;1920.00;;;;;;5083262;28;20389;-77
2021/04/17 00:13:53;;;;;;;61.20;32.55;;;204.90;1920.00;;;;;;5097252;28;20028;-77
2021/04/17 00:16:19;;;;;;;57.05;32.65;;;205.00;1894.40;;;;;;5095409;28;20036;-77
2021/04/17 00:18:45;;;;;;;53.50;33.38;;;205.00;1945.60;;;;;;5095318;28;20081;-77
2021/04/17 00:21:12;;;;;;;59.95;35.58;;;205.00;1945.60;;;;;;5093076;28;20081;-76
2021/04/17 00:23:37;;;;;;;57.63;33.53;;;205.00;1945.60;;;;;;5093506;28;20036;-77
2021/04/17 00:26:03;;;;;;;58.83;35.80;;;205.00;1945.60;;;;;;5089512;28;20029;-77
2021/04/17 00:28:29;;;;;;;62.58;37.80;;;205.00;1945.60;;;;;;5108550;28;20036;-77
2021/04/17 00:30:55;;;;;;;56.83;34.65;;;205.00;1971.20;;;;;;5091682;28;20028;-76
2021/04/17 00:33:21;;;;;;;61.55;35.20;;;205.00;1945.60;;;;;;5076105;28;20500;-76
2021/04/17 00:35:47;;;;;;;57.78;33.67;;;205.00;1920.00;;;;;;5085574;28;20031;-77
2021/04/17 00:38:13;;;;;;;58.45;33.40;;;205.00;1920.00;;;;;;5095537;28;20115;-77
2021/04/17 00:40:39;;;;;;;61.38;37.40;;;205.10;1945.60;;;;;;5076486;28;20103;-78
2021/04/17 00:43:05;;;;;;;59.83;35.08;;;205.10;1894.40;;;;;;5079452;28;20028;-76
2021/04/17 00:45:31;;;;;;;64.55;36.40;;;205.10;1894.40;;;;;;5086543;28;20047;-77
2021/04/17 00:47:57;;;;;;;63.78;37.20;;;205.10;1894.40;;;;;;5095093;28;20027;-77
2021/04/17 00:50:24;;;;;;;68.45;38.63;;;205.10;1920.00;;;;;;5096243;28;20028;-76
2021/04/17 00:52:51;;;;;;;63.80;35.63;;;205.10;1920.00;;;;;;5093321;28;20020;-77
2021/04/17 00:55:16;;;;;;;64.93;35.65;;;205.10;1894.40;;;;;;5095695;28;20048;-76
2021/04/17 00:57:42;;;;;;;68.35;38.55;;;205.10;1894.40;;;;;;5095759;28;20064;-77
2021/04/17 01:00:09;;;;;;;63.55;35.45;;;205.10;1894.40;;;;;;5129163;27;20461;-77
2021/04/17 01:02:40;;;;;;;65.78;37.40;;;205.10;1894.40;;;;;;5084696;28;20028;-76
2021/04/17 01:05:08;;;;;;;68.43;38.28;;;205.10;1868.80;;;;;;5089404;28;20103;-77
2021/04/17 01:07:46;;;;;;;60.50;34.90;;;205.10;1920.00;;;;;;5091405;28;20029;-77
2021/04/17 01:10:26;;;;;;;65.85;35.38;;;205.10;1894.40;;;;;;5073345;28;20047;-78
2021/04/17 01:12:55;;;;;;;66.70;35.75;;;205.10;1920.00;;;;;;5090782;28;20024;-78
2021/04/17 01:15:22;;;;;;;58.58;33.70;;;205.10;1894.40;;;;;;5087529;28;20028;-77
2021/04/17 01:17:52;;;;;;;62.55;31.08;;;205.10;1843.20;;;;;;5095646;28;20035;-77
2021/04/17 01:20:20;;;;;;;52.27;31.43;;;205.20;1843.20;;;;;;5089590;28;20505;-77
2021/04/17 01:22:56;;;;;;;58.60;32.72;;;205.20;1843.20;;;;;;5080429;28;20336;-78
2021/04/17 01:25:24;;;;;;;50.78;28.73;;;205.20;1868.80;;;;;;5079052;28;20030;-76
2021/04/17 01:27:50;;;;;;;49.40;29.52;;;205.20;1868.80;;;;;;5075762;28;20032;-77
2021/04/17 01:30:19;;;;;;;49.58;31.35;;;205.20;1868.80;;;;;;5126565;27;20035;-77
2021/04/17 01:32:46;;;;;;;55.20;31.17;;;205.20;1868.80;;;;;;5093810;28;20044;-78
2021/04/17 01:35:15;;;;;;;48.92;30.90;;;205.20;1843.20;;;;;;5075422;28;20048;-78
2021/04/17 01:37:53;;;;;;;53.38;31.88;;;205.20;1868.80;;;;;;5079436;28;20039;-77
2021/04/17 01:40:25;;;;;;;52.05;28.83;;;205.20;1843.20;;;;;;5086595;28;20070;-78
2021/04/17 01:42:53;;;;;;;46.45;30.58;;;205.20;1843.20;;;;;;5074790;28;20561;-78
2021/04/17 01:45:23;;;;;;;46.38;28.48;;;205.20;1868.80;;;;;;5078175;28;20047;-76
2021/04/17 01:47:52;;;;;;;52.03;33.25;;;205.20;1894.40;;;;;;5078522;28;20032;-77
2021/04/17 01:50:18;;;;;;;48.67;31.08;;;205.20;1894.40;;;;;;5080913;28;20466;-78
2021/04/17 01:52:46;;;;;;;50.42;31.98;;;205.20;1920.00;;;;;;5094514;28;20473;-78
2021/04/17 01:55:13;;;;;;;49.33;31.08;;;205.20;1894.40;;;;;;5092892;28;20488;-78
2021/04/17 01:57:42;;;;;;;51.17;30.98;;;205.20;1894.40;;;;;;5092155;28;20028;-78
2021/04/17 02:00:08;;;;;;;55.70;29.58;;;205.20;1868.80;;;;;;5094342;28;20020;-78
2021/04/17 02:02:34;;;;;;;49.50;29.63;;;205.20;1868.80;;;;;;5079626;28;20029;-78
2021/04/17 02:05:00;;;;;;;51.63;29.17;;;205.20;1868.80;;;;;;5085042;28;20031;-78
2021/04/17 02:07:27;;;;;;;49.80;28.77;;;205.20;1894.40;;;;;;5113219;27;20028;-78
2021/04/17 02:09:53;;;;;;;51.20;29.88;;;205.20;1868.80;;;;;;5083617;28;20024;-78
2021/04/17 02:12:19;;;;;;;42.40;27.20;;;205.20;1868.80;;;;;;5093989;28;20489;-79
2021/04/17 02:14:45;;;;;;;48.13;29.58;;;205.20;1868.80;;;;;;5093582;28;20115;-78
2021/04/17 02:17:34;;;;;;;50.22;27.45;;;205.30;1894.40;;;;;;5094587;28;20042;-78
2021/04/17 02:20:06;;;;;;;54.90;28.10;;;205.20;1894.40;;;;;;5072930;28;20056;-77
2021/04/17 02:22:32;;;;;;;46.67;27.88;;;205.20;1894.40;;;;;;5089465;28;20040;-77
2021/04/17 02:25:00;;;;;;;38.42;24.77;;;205.20;1894.40;;;;;;5094303;28;20016;-77
2021/04/17 02:27:26;;;;;;;49.97;27.95;;;205.30;1894.40;;;;;;5086949;28;20497;-78
2021/04/17 02:29:54;;;;;;;46.78;27.80;;;205.30;1868.80;;;;;;5083334;28;20028;-77
2021/04/17 02:32:20;;;;;;;56.65;28.20;;;205.30;1868.80;;;;;;5089640;28;20021;-77
2021/04/17 02:34:47;;;;;;;48.58;28.83;;;205.30;1894.40;;;;;;5080098;28;20074;-77
2021/04/17 02:37:13;;;;;;;53.17;27.77;;;205.30;1894.40;;;;;;5092292;28;20024;-77
2021/04/17 02:39:40;;;;;;;51.22;27.02;;;205.30;1868.80;;;;;;5114804;27;20040;-78
2021/04/17 02:42:06;;;;;;;41.05;25.63;;;205.30;1868.80;;;;;;5093715;28;20028;-77
2021/04/17 02:44:32;;;;;;;47.80;27.40;;;205.30;1894.40;;;;;;5076357;28;20053;-78
2021/04/17 02:46:58;;;;;;;54.13;27.83;;;205.40;1868.80;;;;;;5073529;28;20478;-77
2021/04/17 02:49:25;;;;;;;47.67;28.05;;;205.30;1868.80;;;;;;5074270;28;20036;-77
2021/04/17 02:51:50;;;;;;;47.22;27.58;;;205.40;1868.80;;;;;;5106142;28;20020;-78
2021/04/17 02:54:16;;;;;;;47.45;25.90;;;205.40;1868.80;;;;;;5084217;28;20024;-78
2021/04/17 02:56:42;;;;;;;46.20;27.08;;;205.40;1843.20;;;;;;5073604;28;20111;-77
2021/04/17 02:59:08;;;;;;;42.03;25.90;;;205.30;1843.20;;;;;;5086556;28;20036;-78
2021/04/17 03:01:34;;;;;;;51.00;28.10;;;205.30;1843.20;;;;;;5124672;27;20036;-77
2021/04/17 03:03:59;;;;;;;45.33;27.90;;;205.30;1843.20;;;;;;5093806;28;20469;-76
2021/04/17 03:06:25;;;;;;;51.42;26.85;;;205.30;1868.80;;;;;;5122665;27;20028;-76
2021/04/17 03:08:51;;;;;;;41.40;25.38;;;205.30;1868.80;;;;;;5071782;28;20028;-75
2021/04/17 03:11:17;;;;;;;35.97;23.63;;;205.30;1843.20;;;;;;5073393;28;20036;-76
2021/04/17 03:13:42;;;;;;;43.40;26.73;;;205.20;1843.20;;;;;;5107362;27;20059;-76
2021/04/17 03:16:08;;;;;;;35.63;23.95;;;205.20;1843.20;;;;;;5086333;28;20036;-77
2021/04/17 03:18:34;;;;;;;44.30;25.40;;;205.20;1868.80;;;;;;5124554;27;20397;-78
2021/04/17 03:21:00;;;;;;;38.60;24.88;;;205.20;1868.80;;;;;;5075548;28;20044;-77
2021/04/17 03:23:26;;;;;;;37.15;23.50;;;205.20;1868.80;;;;;;5073420;28;20039;-77
2021/04/17 03:25:51;;;;;;;36.13;23.48;;;205.20;1868.80;;;;;;5081646;28;20025;-77
2021/04/17 03:28:17;;;;;;;43.08;26.08;;;205.20;1894.40;;;;;;5086378;28;20055;-77
2021/04/17 03:30:43;;;;;;;46.90;27.10;;;205.20;1894.40;;;;;;5093379;28;20101;-77
2021/04/17 03:33:09;;;;;;;44.42;25.83;;;205.20;1868.80;;;;;;5085502;28;20024;-77
2021/04/17 03:35:34;;;;;;;40.70;25.85;;;205.20;1894.40;;;;;;5087267;28;20040;-78
2021/04/17 03:38:01;;;;;;;39.92;24.05;;;205.20;1894.40;;;;;;5091709;28;20080;-78
2021/04/17 03:40:27;;;;;;;38.47;23.52;;;205.10;1894.40;;;;;;5084524;28;20032;-78
2021/04/17 03:42:53;;;;;;;41.40;25.63;;;205.10;1894.40;;;;;;5089313;28;20445;-78
2021/04/17 03:45:20;;;;;;;37.78;23.85;;;205.10;1894.40;;;;;;5091679;28;20087;-78
2021/04/17 03:47:46;;;;;;;40.05;25.73;;;205.10;1894.40;;;;;;5118864;28;20029;-78
2021/04/17 03:50:13;;;;;;;37.10;24.00;;;205.10;1868.80;;;;;;5072386;28;20486;-77
2021/04/17 03:52:39;;;;;;;42.28;26.13;;;205.10;1894.40;;;;;;5081687;28;20036;-77
2021/04/17 03:55:08;;;;;;;44.80;28.75;;;205.10;1920.00;;;;;;5092276;28;20047;-78
2021/04/17 03:57:35;;;;;;;46.30;27.77;;;205.10;1920.00;;;;;;5091645;28;20066;-80
2021/04/17 04:00:02;;;;;;;52.50;30.30;;;205.10;1945.60;;;;;;5091067;28;20497;-77
2021/04/17 04:02:28;;;;;;;56.83;32.20;;;205.10;1920.00;;;;;;5074205;28;20040;-78
2021/04/17 04:04:54;;;;;;;56.95;32.13;;;205.10;1945.60;;;;;;5093050;28;20036;-78
2021/04/17 04:07:20;;;;;;;58.28;33.83;;;205.10;1945.60;;;;;;5078968;28;20028;-78
2021/04/17 04:09:45;;;;;;;62.53;36.78;;;205.20;1945.60;;;;;;5081807;28;20107;-78
2021/04/17 04:12:11;;;;;;;68.38;38.97;;;205.20;1945.60;;;;;;5090820;28;20024;-78
2021/04/17 04:14:37;;;;;;;70.20;39.72;;;205.20;1945.60;;;;;;5075129;28;20087;-79
2021/04/17 04:17:03;;;;;;;65.55;39.63;;;205.20;1945.60;;;;;;5093124;28;20109;-78
2021/04/17 04:19:29;;;;;;;66.53;42.75;;;205.20;1945.60;;;;;;5092766;28;20586;-78
2021/04/17 04:21:55;;;;;;;65.60;39.70;;;205.10;1971.20;;;;;;5091516;28;20028;-77
2021/04/17 04:24:21;;;;;;;71.82;40.92;;;205.20;1971.20;;;;;;5124836;28;20030;-77
2021/04/17 04:26:47;;;;;;;72.00;42.30;;;205.20;1971.20;;;;;;5104559;28;20114;-78
2021/04/17 04:29:12;;;;;;;65.25;40.08;;;205.20;1996.80;;;;;;5074836;28;20035;-77
2021/04/17 04:31:38;;;;;;;64.20;38.40;;;205.20;1971.20;;;;;;5071054;28;20036;-78
2021/04/17 04:34:04;;;;;;;61.35;37.38;;;205.20;1971.20;;;;;;5107151;28;20030;-78
2021/04/17 04:36:30;;;;;;;67.10;39.63;;;205.20;1971.20;;;;;;5088854;28;20111;-77
2021/04/17 04:38:56;;;;;;;63.30;38.70;;;205.20;1971.20;;;;;;5092114;28;20081;-77
2021/04/17 04:41:22;;;;;;;64.43;37.35;;;205.20;1971.20;;;;;;5072608;28;20017;-76
2021/04/17 04:43:47;;;;;;;65.72;39.47;;;205.20;1945.60;;;;;;5088151;28;20044;-77
2021/04/17 04:46:13;;;;;;;77.53;43.78;;;205.30;1945.60;;;;;;5089388;28;20024;-78
2021/04/17 04:48:39;;;;;;;75.43;44.10;;;205.30;1971.20;;;;;;5095935;28;20020;-77
2021/04/17 04:51:05;;;;;;;76.57;39.28;;;205.40;1971.20;;;;;;5094782;28;20016;-78
2021/04/17 04:53:31;;;;;;;82.93;41.33;;;205.40;1971.20;;;;;;5095674;28;20051;-78
2021/04/17 04:55:57;;;;;;;78.28;42.08;;;205.40;1996.80;;;;;;5095723;28;20027;-78
2021/04/17 04:58:23;;;;;;;74.28;39.83;;;205.40;1971.20;;;;;;5129677;27;20027;-78
2021/04/17 05:00:48;;;;;;;67.47;37.13;;;205.40;1996.80;;;;;;5113481;27;20528;-78
2021/04/17 05:03:14;;;;;;;66.00;35.47;;;205.50;1971.20;;;;;;5088553;28;20065;-79
2021/04/17 05:05:40;;;;;;;55.22;35.40;;;205.50;1971.20;;;;;;5085429;28;20060;-78
2021/04/17 05:08:06;;;;;;;52.47;32.25;;;205.60;1945.60;;;;;;5128262;27;20127;-78
2021/04/17 05:10:31;;;;;;;56.10;36.53;;;205.60;1945.60;;;;;;5075912;28;20078;-79
2021/04/17 05:12:57;;;;;;;54.42;34.28;;;205.60;1945.60;;;;;;5085682;28;20126;-79
2021/04/17 05:15:23;;;;;;;48.08;29.23;;;205.70;1945.60;;;;;;5075440;28;20048;-78
2021/04/17 05:17:49;;;;;;;43.63;26.50;;;205.70;1945.60;;;;;;5078441;28;20024;-76
2021/04/17 05:20:14;;;;;;;46.80;27.73;;;205.70;1894.40;;;;;;5094855;28;20113;-78
2021/04/17 05:22:40;;;;;;;43.42;26.33;;;230.40;1894.40;;;;;;5074522;28;20024;-78
2021/04/17 05:25:07;;;;;;;43.13;26.45;;;230.40;1920.00;;;;;;5086079;28;20040;-77
2021/04/17 05:27:32;;;;;;;41.63;27.85;;;230.50;1920.00;;;;;;5085216;28;20123;-78
2021/04/17 05:29:58;;;;;;;42.47;27.30;;;230.50;1894.40;;;;;;5078492;28;20137;-76
2021/04/17 05:32:24;;;;;;;33.83;24.42;;;230.50;1894.40;;;;;;5084133;28;20024;-76
2021/04/17 05:34:50;;;;;;;32.63;21.67;;;230.60;1792.00;;;;;;5081501;28;20025;-76
2021/04/17 05:37:15;;;;;;;26.83;17.73;;;230.60;1792.00;;;;;;5075054;28;20059;-76
2021/04/17 05:39:41;;;;;;;28.95;18.15;;;230.70;1792.00;;;;;;5078040;28;20029;-76
2021/04/17 05:42:08;;;;;;;29.35;20.17;;;230.70;1792.00;;;;;;5074933;28;20032;-76
2021/04/17 05:44:34;;;;;;;36.78;21.77;;;230.80;1766.40;;;;;;5077578;28;20573;-76
2021/04/17 05:47:00;;;;;;;53.30;31.60;;;230.80;1766.40;;;;;;5080020;28;20123;-76
2021/04/17 05:49:25;;;;;;;33.63;21.95;;;230.80;1792.00;;;;;;5117390;27;20040;-76
2021/04/17 05:51:51;;;;;;;56.50;36.83;;;230.80;1792.00;;;;;;5074664;28;20035;-76
2021/04/17 05:54:17;;;;;;;45.55;29.60;;;230.90;1766.40;;;;;;5073595;28;20025;-76
2021/04/17 05:56:44;;;;;;;59.05;45.03;;;230.90;1766.40;;;;;;5127087;27;20065;-77
2021/04/17 05:59:10;;;;;;;32.70;22.75;;;231.00;1766.40;;;;;;5080457;28;20056;-77
2021/04/17 06:01:36;;;;;;;36.42;21.08;;;231.00;1766.40;;;;;;5074027;28;20052;-77
2021/04/17 06:04:02;;;;;;;28.95;18.63;;;231.10;1766.40;;;;;;5072425;28;20033;-77
2021/04/17 06:06:27;;;;;;;25.48;17.52;;;231.10;1766.40;;;;;;5074258;28;20036;-77
2021/04/17 06:08:53;;;;;;;35.78;18.15;;;231.10;1766.40;;;;;;5074204;28;20794;-78
2021/04/17 06:11:20;;;;;;;28.55;18.10;;;231.10;1715.20;;;;;;5090297;28;20482;-80
2021/04/17 06:13:46;;;;;;;26.20;17.23;;;231.20;1740.80;;;;;;5094784;28;20427;-79
2021/04/17 06:16:11;;;;;;;28.33;17.08;;;231.20;1740.80;;;;;;5093337;28;20400;-81
2021/04/17 06:18:37;;;;;;;24.40;16.58;;;231.30;1715.20;;;;;;5085902;28;20031;-79
2021/04/17 06:21:05;;;;;;;24.63;15.10;;;231.30;1689.60;;;;;;5081217;28;20485;-78
2021/04/17 06:23:34;;;;;;;22.60;15.93;;;256.00;1689.60;;;;;;5089025;28;20038;-80
2021/04/17 06:26:01;;;;;;;20.25;15.18;;;256.00;1664.00;;;;;;5094222;28;20548;-78
2021/04/17 06:28:27;;;;;;;24.08;16.65;;;256.10;1664.00;;;;;;5090033;28;20101;-78
2021/04/17 06:30:52;;;;;;;26.90;19.20;;;256.10;1664.00;;;;;;5093338;28;20066;-80
2021/04/17 06:33:18;;;;;;;22.55;16.10;;;256.20;1664.00;;;;;;5092858;28;20029;-78
2021/04/17 06:35:44;;;;;;;19.38;13.85;;;256.10;1612.80;;;;;;5093210;28;20516;-78
2021/04/17 06:38:13;;;;;;;22.58;14.95;;;256.20;1612.80;;;;;;5078783;28;20031;-75
2021/04/17 06:40:39;;;;;;;24.33;16.88;;;256.20;1587.20;;;;;;5073582;28;20375;-76
2021/04/17 06:43:05;;;;;;;24.23;17.17;;;256.20;1587.20;;;;;;5072511;28;20074;-76
2021/04/17 06:45:34;;;;;;;21.30;15.85;;;256.20;1612.80;;;;;;5089268;28;20052;-79
2021/04/17 06:48:03;;;;;;;22.48;14.85;;;256.30;1587.20;;;;;;5094160;28;20024;-79
2021/04/17 06:50:29;;;;;;;21.30;15.18;;;256.30;1612.80;;;;;;5093689;28;20020;-78
2021/04/17 06:52:56;;;;;;;21.42;15.13;;;256.30;1612.80;;;;;;5093718;28;20544;-81
2021/04/17 06:55:22;;;;;;;23.35;16.25;;;256.40;1587.20;;;;;;5090811;28;20038;-77
2021/04/17 06:57:49;;;;;;;21.85;17.08;;;256.40;1587.20;;;;;;5092610;28;20384;-77
2021/04/17 07:00:18;;;;;;;21.30;15.38;;;256.40;1612.80;;;;;;5091596;28;20039;-77
2021/04/17 07:02:45;;;;;;;18.08;13.98;;;256.40;1612.80;;;;;;5110082;27;20039;-80
2021/04/17 07:05:11;;;;;;;28.92;19.95;;;256.50;1612.80;;;;;;5091955;28;20032;-78
2021/04/17 07:07:36;;;;;;;25.88;15.60;;;256.60;1612.80;;;;;;5091759;28;20062;-78
2021/04/17 07:10:03;;;;;;;18.38;13.43;;;256.60;1561.60;;;;;;5093175;28;20382;-80
2021/04/17 07:12:28;;;;;;;17.77;12.68;;;256.70;1561.60;;;;;;5082205;28;20501;-78
2021/04/17 07:14:55;;;;;;;20.48;12.82;;;256.70;1536.00;;;;;;5093839;28;20031;-78
2021/04/17 07:17:22;;;;;;;18.05;14.30;;;256.80;1536.00;;;;;;5092100;28;20473;-78
2021/04/17 07:19:53;;;;;;;16.98;11.77;;;256.80;1561.60;;;;;;5072938;28;20031;-77
2021/04/17 07:22:33;;;;;;;15.00;11.90;;;256.90;1536.00;;;;;;5073507;28;20031;-77
2021/04/17 07:25:04;;;;;;;23.98;16.77;;;281.60;1561.60;;;;;;5073541;28;20025;-76
2021/04/17 07:27:33;;;;;;;15.93;12.52;;;281.60;1536.00;;;;;;5071857;28;20027;-77
2021/04/17 07:30:23;;;;;;;11.98;10.27;;;281.70;1484.80;;;;;;5073169;28;20024;-78
2021/04/17 07:33:05;;;;;;;15.47;11.70;;;281.70;1459.20;;;;;;5066611;28;20090;-78
2021/04/17 07:35:39;;;;;;;14.85;11.13;;;281.70;1484.80;;;;;;5073023;28;20101;-78
2021/04/17 07:38:34;;;;;;;20.23;14.25;;;281.80;1484.80;;;;;;5071886;28;20059;-78
2021/04/17 07:41:11;;;;;;;17.20;13.63;;;281.80;1510.40;;;;;;5070792;28;20051;-77
2021/04/17 07:43:59;;;;;;;25.35;14.68;;;281.90;1510.40;;;;;;5072843;28;20094;-78
2021/04/17 07:46:28;;;;;;;17.15;12.57;;;281.90;1484.80;;;;;;5071618;28;20067;-77
2021/04/17 07:49:19;;;;;;;17.92;12.93;;;281.90;1459.20;;;;;;5071565;28;20366;-77
2021/04/17 07:52:15;;;;;;;20.42;14.57;;;282.00;1459.20;;;;;;5071896;28;20086;-77
2021/04/17 07:55:04;;;;;;;16.98;12.60;;;282.00;1433.60;;;;;;5063533;28;20531;-77
2021/04/17 07:57:53;;;;;;;16.40;11.82;;;282.00;1459.20;;;;;;5071663;28;20378;-77
2021/04/17 08:00:20;;;;;;;17.60;13.02;;;282.10;1459.20;;;;;;5070828;28;20579;-77
2021/04/17 08:02:48;;;;;;;17.77;13.57;;;282.20;1484.80;;;;;;5071487;28;20063;-77
2021/04/17 08:05:15;;;;;;;19.25;14.75;;;282.20;1459.20;;;;;;5072716;28;20035;-77
2021/04/17 08:07:41;;;;;;;18.00;14.10;;;282.30;1459.20;;;;;;5072357;28;20052;-78
2021/04/17 08:10:13;;;;;;;19.48;14.52;;;282.40;1459.20;;;;;;5070532;28;20017;-77
2021/04/17 08:12:43;;;;;;;15.45;12.73;;;282.40;1408.00;;;;;;5070210;28;20052;-77
2021/04/17 08:15:15;;;;;;;16.05;11.27;;;282.40;1382.40;;;;;;5070386;28;20482;-79
2021/04/17 08:17:43;;;;;;;13.10;10.80;;;282.40;1408.00;;;;;;5071504;28;20032;-77
2021/04/17 08:20:11;;;;;;;15.13;10.77;;;282.50;1408.00;;;;;;5075213;28;20043;-77
2021/04/17 08:22:39;;;;;;;12.98;10.32;;;307.20;1408.00;;;;;;5076705;28;20115;-77
2021/04/17 08:25:06;;;;;;;13.43;10.20;;;307.20;1382.40;;;;;;5075028;28;20029;-77
2021/04/17 08:27:33;;;;;;;11.50;9.63;;;307.30;1433.60;;;;;;5076280;28;20557;-78
2021/04/17 08:30:00;;;;;;;15.20;11.48;;;307.30;1433.60;;;;;;5076330;28;20025;-78
2021/04/17 08:32:39;;;;;;;14.68;11.43;;;307.40;1433.60;;;;;;5076165;28;20029;-77
2021/04/17 08:35:19;;;;;;;13.40;10.48;;;307.50;1408.00;;;;;;5075046;28;20032;-77
2021/04/17 08:38:00;;;;;;;13.65;10.60;;;307.50;1382.40;;;;;;5074917;28;20078;-77
2021/04/17 08:40:37;;;;;;;10.82;8.95;;;307.50;1408.00;;;;;;5075612;28;20390;-77
2021/04/17 08:43:03;;;;;;;15.85;12.07;;;307.60;1408.00;;;;;;5076329;28;20024;-77
2021/04/17 08:45:29;;;;;;;18.92;11.70;;;307.70;1433.60;;;;;;5074824;28;20520;-78
2021/04/17 08:48:00;;;;;;;15.00;11.20;;;307.80;1433.60;;;;;;5073580;28;20100;-78
2021/04/17 08:50:26;;;;;;;12.35;10.30;;;307.80;1459.20;;;;;;5076219;28;20090;-76
2021/04/17 08:53:03;;;;;;;18.52;9.77;;;307.90;1433.60;;;;;;5075186;28;20359;-74
2021/04/17 08:55:42;;;;;;;12.77;9.85;;;308.00;1459.20;;;;;;5074351;28;20017;-77
2021/04/17 08:58:21;;;;;;;11.40;9.43;;;308.00;1382.40;;;;;;5074636;28;20021;-76
2021/04/17 09:00:52;;;;;;;13.48;11.25;;;308.10;1331.20;;;;;;5074441;28;20052;-76
2021/04/17 09:03:40;;;;;;;16.58;12.15;;;332.80;1433.60;;;;;;5075743;28;20020;-76
2021/04/17 09:06:27;;;;;;;15.27;10.68;;;332.80;1382.40;;;;;;5075608;28;20390;-77
2021/04/17 09:09:15;;;;;;;11.75;10.50;;;332.90;1382.40;;;;;;5073866;28;20023;-75
2021/04/17 09:11:43;;;;;;;11.73;10.52;;;333.00;1356.80;;;;;;5075588;28;20016;-77
2021/04/17 09:14:29;;;;;;;11.45;10.02;;;333.00;1356.80;;;;;;5074704;28;20024;-77
2021/04/17 09:17:29;;;;;;;12.43;9.60;;;333.00;1305.60;;;;;;5067187;28;20509;-78
2021/04/17 09:19:55;;;;;;;13.85;11.95;;;333.00;1331.20;;;;;;5074029;28;20039;-78
2021/04/17 09:22:32;;;;;;;16.45;12.25;;;333.00;1356.80;;;;;;5075570;28;20464;-78
2021/04/17 09:25:05;;;;;;;13.38;10.85;;;333.00;1305.60;;;;;;5075191;28;20024;-77
2021/04/17 09:27:39;;;;;;;13.00;10.43;;;333.00;1331.20;;;;;;5075120;28;20031;-77
2021/04/17 09:30:21;;;;;;;12.75;10.68;;;333.00;1356.80;;;;;;5084662;28;20028;-76
2021/04/17 09:32:57;;;;;;;15.40;11.15;;;333.00;1356.80;;;;;;5094003;28;20119;-75
2021/04/17 09:35:25;;;;;;;15.30;11.60;;;333.00;1356.80;;;;;;5091532;28;20020;-76
2021/04/17 09:38:15;;;;;;;11.35;10.13;;;333.10;1356.80;;;;;;5095317;28;20047;-75
2021/04/17 09:40:45;;;;;;;12.32;11.05;;;333.10;1356.80;;;;;;5095036;28;20030;-76
2021/04/17 09:43:32;;;;;;;11.93;10.73;;;333.10;1356.80;;;;;;5074781;28;20045;-75
2021/04/17 09:46:06;;;;;;;18.05;11.68;;;333.10;1356.80;;;;;;5076201;28;20490;-75
2021/04/17 09:48:39;;;;;;;13.55;11.45;;;333.10;1382.40;;;;;;5093778;28;20492;-76
2021/04/17 09:51:16;;;;;;;14.50;10.35;;;333.20;1356.80;;;;;;5093512;28;20024;-76
2021/04/17 09:53:42;;;;;;;13.10;10.23;;;333.20;1356.80;;;;;;5093777;28;20073;-76
2021/04/17 09:56:12;;;;;;;13.05;11.07;;;333.20;1331.20;;;;;;5090870;28;20027;-77
2021/04/17 09:58:42;;;;;;;11.48;10.27;;;333.30;1356.80;;;;;;5094939;28;20470;-77
2021/04/17 10:01:15;;;;;;;;;;;333.30;1356.80;;;;;;5094150;28;20464;-76
2021/04/17 10:03:43;;;;;;;12.70;11.23;;;333.30;1331.20;;;;;;5074750;28;19904;-77
2021/04/17 10:06:30;;;;;;;15.50;12.32;;;333.40;1356.80;;;;;;5081598;28;20024;-76
2021/04/17 10:09:06;;;;;;;13.75;9.63;;;333.30;1331.20;;;;;;5076522;28;20024;-77
2021/04/17 10:11:33;;;;;;;16.45;12.38;;;333.30;1305.60;;;;;;5093038;28;20426;-76
2021/04/17 10:13:59;;;;;;;12.68;10.85;;;333.30;1305.60;;;;;;5074662;28;20075;-76
2021/04/17 10:16:26;;;;;;;12.43;9.88;;;333.30;1305.60;;;;;;5078931;28;20059;-76
2021/04/17 10:18:52;;;;;;;14.05;10.50;;;333.30;1305.60;;;;;;5084484;28;20081;-76
2021/04/17 10:21:33;;;;;;;11.75;9.85;;;333.30;1305.60;;;;;;5093068;28;20097;-76
2021/04/17 10:24:19;;;;;;;15.45;9.80;;;333.40;1305.60;;;;;;5087027;28;20021;-77
2021/04/17 10:26:54;;;;;;;11.52;9.65;;;333.40;1305.60;;;;;;5072706;28;20036;-76
2021/04/17 10:29:21;;;;;;;10.80;9.13;;;333.40;1280.00;;;;;;5080785;28;20094;-78
2021/04/17 10:31:58;;;;;;;11.63;9.27;;;333.40;1280.00;;;;;;5092527;28;20024;-80
2021/04/17 10:34:24;;;;;;;13.25;10.38;;;333.40;1305.60;;;;;;5088989;28;20027;-78
2021/04/17 10:37:17;;;;;;;13.65;11.13;;;333.40;1254.40;;;;;;5074730;28;20021;-76
2021/04/17 10:40:05;;;;;;;12.35;10.68;;;333.40;1305.60;;;;;;5090213;28;20032;-78
2021/04/17 10:42:48;;;;;;;14.90;10.80;;;333.50;1305.60;;;;;;5093798;28;20024;-78
2021/04/17 10:45:16;;;;;;;12.95;10.45;;;333.50;1331.20;;;;;;5091611;28;20083;-78
2021/04/17 10:47:42;;;;;;;12.10;10.73;;;333.60;1280.00;;;;;;5092095;28;20074;-77
2021/04/17 10:50:19;;;;;;;11.75;10.05;;;333.60;1280.00;;;;;;5094595;28;20020;-78
2021/04/17 10:53:07;;;;;;;12.30;10.02;;;333.60;1280.00;;;;;;5092409;28;20690;-77
2021/04/17 10:55:48;;;;;;;11.95;10.07;;;333.60;1254.40;;;;;;5073019;28;20843;-79
2021/04/17 10:58:32;;;;;;;13.32;9.73;;;333.60;1254.40;;;;;;5072822;28;20398;-77
2021/04/17 11:00:59;;;;;;;39.28;11.80;;;333.60;1280.00;;;;;;5092135;28;20028;-80
2021/04/17 11:03:28;;;;;;;20.40;9.32;;;358.40;1331.20;;;;;;5092010;28;20032;-80
2021/04/17 11:06:10;;;;;;;53.55;31.70;;;358.40;1305.60;;;;;;5093130;28;20024;-83
2021/04/17 11:08:36;;;;;;;28.48;18.15;;;358.50;1280.00;;;;;;5076614;28;20024;-77
2021/04/17 11:11:10;;;;;;;105.30;57.38;;;358.50;1254.40;;;;;;5071497;28;20033;-78
2021/04/17 11:13:40;;;;;;;20.65;15.45;;;358.50;1228.80;;;;;;5080595;28;20095;-77
2021/04/17 11:16:06;;;;;;;164.15;115.40;;;358.50;1254.40;;;;;;5093598;28;20134;-77
2021/04/17 11:18:36;;;;;;;37.83;26.40;;;358.60;1305.60;;;;;;5091545;28;20485;-76
2021/04/17 11:21:06;;;;;;;83.10;44.97;;;358.60;1305.60;;;;;;5087140;28;20033;-76
2021/04/17 11:23:52;;;;;;;73.75;40.33;;;358.60;1254.40;;;;;;5085135;28;20035;-76
2021/04/17 11:26:24;;;;;;;29.20;20.35;;;358.60;1254.40;;;;;;5091228;28;20036;-77
2021/04/17 11:28:52;;;;;;;18.63;12.45;;;358.60;1254.40;;;;;;5090461;28;20051;-77
2021/04/17 11:31:23;;;;;;;29.42;19.20;;;358.70;1254.40;;;;;;5089861;28;20539;-79
2021/04/17 11:33:52;;;;;;;24.73;12.48;;;358.70;1280.00;;;;;;5085567;28;20024;-77
2021/04/17 11:36:19;;;;;;;40.92;26.60;;;358.70;1280.00;;;;;;5073030;28;20021;-77
2021/04/17 11:38:45;;;;;;;22.08;14.38;;;358.70;1203.20;;;;;;5076071;28;20020;-77
2021/04/17 11:41:11;;;;;;;448.08;304.95;;;358.70;1228.80;;;;;;5081941;28;20039;-77
2021/04/17 11:43:36;;;;;;;409.35;291.05;;;358.80;1305.60;;;;;;5092683;28;20505;-78
2021/04/17 11:46:02;;;;;;;221.77;60.08;;;358.80;1280.00;;;;;;5092825;28;20021;-78
2021/04/17 11:48:28;;;;;;;857.03;120.68;;;358.90;1228.80;;;;;;5090756;28;20111;-78
2021/04/17 11:50:54;;;;;;;88.03;18.33;;;358.90;1254.40;;;;;;5079659;28;20024;-77
2021/04/17 11:53:21;;;;;;;58.75;30.48;;;358.90;1203.20;;;;;;5094487;28;20077;-78
2021/04/17 11:55:51;;;;;;;39.78;25.55;;;358.90;1203.20;;;;;;5086679;28;20115;-77
2021/04/17 11:58:18;;;;;;;18.45;14.60;;;359.00;1228.80;;;;;;5077085;28;20020;-77
2021/04/17 12:00:43;;;;;;;30.90;19.13;;;358.90;1254.40;;;;;;5093929;28;20119;-78
2021/04/17 12:03:09;;;;;;;22.35;14.25;;;359.00;1228.80;;;;;;5095464;28;20544;-75
2021/04/17 12:05:35;;;;;;;16.90;12.27;;;359.00;1254.40;;;;;;5097027;28;20419;-78
2021/04/17 12:08:01;;;;;;;53.17;32.83;;;359.00;1254.40;;;;;;5096874;28;20020;-78
2021/04/17 12:10:27;;;;;;;61.13;40.25;;;359.00;1254.40;;;;;;5097127;28;20112;-79